createdAt,value
2022-12-22T00:00:26.899Z,2.89
2022-12-22T00:04:11.086Z,2.90
2022-12-22T00:06:57.074Z,3.03
2022-12-22T00:10:08.282Z,2.98
2022-12-22T00:13:14.760Z,3.01
2022-12-22T00:16:04.442Z,3.02
2022-12-22T00:18:54.472Z,3.03
2022-12-22T00:21:43.076Z,3.05
2022-12-22T00:24:35.145Z,3.03
2022-12-22T00:27:45.779Z,2.94
2022-12-22T00:30:34.574Z,2.90
2022-12-22T00:33:27.907Z,2.84
2022-12-22T00:36:13.425Z,2.74
2022-12-22T00:38:58.580Z,2.70
2022-12-22T00:41:43.922Z,2.66
2022-12-22T00:44:29.411Z,2.53
2022-12-22T00:47:16.356Z,2.43
2022-12-22T00:50:05.680Z,2.38
2022-12-22T00:52:51.759Z,2.39
2022-12-22T00:55:44.222Z,2.34
2022-12-22T00:58:36.210Z,2.31
2022-12-22T01:01:22.008Z,2.39
2022-12-22T01:04:07.805Z,2.47
2022-12-22T01:06:55.216Z,2.48
2022-12-22T01:09:41.572Z,2.51
2022-12-22T01:12:42.970Z,2.44
2022-12-22T01:15:36.176Z,2.43
2022-12-22T01:18:21.991Z,2.40
2022-12-22T01:21:09.802Z,2.44
2022-12-22T01:23:56.363Z,2.51
2022-12-22T01:26:42.418Z,2.54
2022-12-22T01:29:27.751Z,2.57
2022-12-22T01:32:13.373Z,2.62
2022-12-22T01:34:59.607Z,2.62
2022-12-22T01:37:45.151Z,2.66
2022-12-22T01:40:38.140Z,2.66
2022-12-22T01:43:39.823Z,2.54
2022-12-22T01:46:48.115Z,2.53
2022-12-22T01:49:56.451Z,2.58
2022-12-22T01:52:48.992Z,2.65
2022-12-22T01:55:39.708Z,2.72
2022-12-22T01:58:35.139Z,2.71
2022-12-22T02:01:20.588Z,2.71
2022-12-22T02:04:06.017Z,2.66
2022-12-22T02:07:00.403Z,2.63
2022-12-22T02:10:04.141Z,2.60
2022-12-22T02:13:08.266Z,2.54
2022-12-22T02:16:29.721Z,2.43
2022-12-22T02:19:29.549Z,2.46
2022-12-22T02:22:42.426Z,2.53
2022-12-22T02:25:47.263Z,2.49
2022-12-22T02:28:33.125Z,2.56
2022-12-22T02:31:18.439Z,2.58
2022-12-22T02:34:04.019Z,2.59
2022-12-22T02:37:30.816Z,2.49
2022-12-22T02:40:41.618Z,2.59
2022-12-22T02:43:46.372Z,2.63
2022-12-22T02:46:44.527Z,2.54
2022-12-22T02:49:42.412Z,2.55
2022-12-22T02:52:36.346Z,2.56
2022-12-22T02:55:22.441Z,2.31
2022-12-22T02:58:10.404Z,2.47
2022-12-22T03:00:57.872Z,2.52
2022-12-22T03:03:43.454Z,2.53
2022-12-22T03:06:28.938Z,2.54
2022-12-22T03:09:14.275Z,2.54
2022-12-22T03:11:59.630Z,2.58
2022-12-22T03:14:46.146Z,2.65
2022-12-22T03:17:31.751Z,2.56
2022-12-22T03:20:17.610Z,2.48
2022-12-22T03:23:03.062Z,2.45
2022-12-22T03:25:48.444Z,2.38
2022-12-22T03:28:15.269Z,2.41
2022-12-22T03:30:42.439Z,2.50
2022-12-22T03:33:09.133Z,2.53
2022-12-22T03:35:36.058Z,2.38
2022-12-22T03:38:03.818Z,2.47
2022-12-22T03:40:33.947Z,2.43
2022-12-22T03:43:19.379Z,2.47
2022-12-22T03:46:04.813Z,2.42
2022-12-22T03:48:31.570Z,2.47
2022-12-22T03:50:58.415Z,2.53
2022-12-22T03:53:25.277Z,2.54
2022-12-22T03:55:52.336Z,2.43
2022-12-22T03:58:19.199Z,2.43
2022-12-22T04:00:46.086Z,2.44
2022-12-22T04:03:13.398Z,2.38
2022-12-22T04:05:40.407Z,2.44
2022-12-22T04:08:07.733Z,2.54
2022-12-22T04:10:52.869Z,2.56
2022-12-22T04:13:19.599Z,2.57
2022-12-22T04:15:46.587Z,2.46
2022-12-22T04:18:13.279Z,2.32
2022-12-22T04:20:40.027Z,2.28
2022-12-22T04:23:06.871Z,2.27
2022-12-22T04:25:33.692Z,2.28
2022-12-22T04:28:00.475Z,2.23
2022-12-22T04:30:27.226Z,2.21
2022-12-22T04:32:54.004Z,2.19
2022-12-22T04:35:20.775Z,2.12
2022-12-22T04:37:47.527Z,2.12
2022-12-22T04:40:14.378Z,2.17
2022-12-22T04:42:41.095Z,2.27
2022-12-22T04:45:08.527Z,2.31
2022-12-22T04:47:35.353Z,2.35
2022-12-22T04:50:02.146Z,2.22
2022-12-22T04:52:30.239Z,2.21
2022-12-22T04:54:56.971Z,2.26
2022-12-22T04:57:23.981Z,2.27
2022-12-22T04:59:50.748Z,2.26
2022-12-22T05:02:17.857Z,2.31
2022-12-22T05:04:44.604Z,2.26
2022-12-22T05:07:11.394Z,2.20
2022-12-22T05:09:38.163Z,2.18
2022-12-22T05:12:26.547Z,2.20
2022-12-22T05:14:53.319Z,2.23
2022-12-22T05:17:20.302Z,2.22
2022-12-22T05:19:47.047Z,2.27
2022-12-22T05:22:13.852Z,2.33
2022-12-22T05:24:40.678Z,2.39
2022-12-22T05:27:07.671Z,2.33
2022-12-22T05:29:34.590Z,2.27
2022-12-22T05:32:01.403Z,2.29
2022-12-22T05:34:28.623Z,2.27
2022-12-22T05:36:55.785Z,2.22
2022-12-22T05:39:22.682Z,2.18
2022-12-22T05:41:49.928Z,2.20
2022-12-22T05:44:16.658Z,2.18
2022-12-22T05:46:43.438Z,2.20
2022-12-22T05:49:10.211Z,2.14
2022-12-22T05:51:37.047Z,2.18
2022-12-22T05:54:03.880Z,2.23
2022-12-22T05:56:30.616Z,2.24
2022-12-22T05:58:57.338Z,2.25
2022-12-22T06:01:24.275Z,2.24
2022-12-22T06:03:56.158Z,2.28
2022-12-22T06:06:26.313Z,2.30
2022-12-22T06:08:53.107Z,2.30
2022-12-22T06:11:19.929Z,2.31
2022-12-22T06:13:47.079Z,2.28
2022-12-22T06:16:14.003Z,2.33
2022-12-22T06:18:40.758Z,2.38
2022-12-22T06:21:07.704Z,2.42
2022-12-22T06:23:34.547Z,2.48
2022-12-22T06:26:02.739Z,2.48
2022-12-22T06:28:30.045Z,2.48
2022-12-22T06:30:57.039Z,2.41
2022-12-22T06:33:24.119Z,2.47
2022-12-22T06:35:57.628Z,2.50
2022-12-22T06:38:25.960Z,2.51
2022-12-22T06:40:52.849Z,2.48
2022-12-22T06:43:20.049Z,2.45
2022-12-22T06:45:46.871Z,2.40
2022-12-22T06:48:14.017Z,2.42
2022-12-22T06:50:41.274Z,2.45
2022-12-22T06:53:08.938Z,2.51
2022-12-22T06:55:36.818Z,2.45
2022-12-22T06:58:06.897Z,2.45
2022-12-22T07:00:35.564Z,2.41
2022-12-22T07:03:02.545Z,2.41
2022-12-22T07:05:32.030Z,2.35
2022-12-22T07:08:05.959Z,2.45
2022-12-22T07:10:53.415Z,2.45
2022-12-22T07:13:20.136Z,2.37
2022-12-22T07:15:55.286Z,2.34
2022-12-22T07:18:26.883Z,2.33
2022-12-22T07:20:54.829Z,2.40
2022-12-22T07:23:21.688Z,2.50
2022-12-22T07:25:49.032Z,2.54
2022-12-22T07:28:20.620Z,2.57
2022-12-22T07:30:49.198Z,2.60
2022-12-22T07:33:16.549Z,2.59
2022-12-22T07:35:43.514Z,2.58
2022-12-22T07:38:10.398Z,2.56
2022-12-22T07:40:41.864Z,2.65
2022-12-22T07:43:09.700Z,2.64
2022-12-22T07:45:36.602Z,2.59
2022-12-22T07:48:28.091Z,2.57
2022-12-22T07:51:01.960Z,2.47
2022-12-22T07:53:29.126Z,2.43
2022-12-22T07:55:55.970Z,2.38
2022-12-22T07:58:22.706Z,2.37
2022-12-22T08:00:49.695Z,2.41
2022-12-22T08:03:16.961Z,2.45
2022-12-22T08:05:44.682Z,2.42
2022-12-22T08:08:11.355Z,2.40
2022-12-22T08:10:38.121Z,2.35
2022-12-22T08:13:05.054Z,2.29
2022-12-22T08:15:31.902Z,2.31
2022-12-22T08:17:58.600Z,2.34
2022-12-22T08:20:26.023Z,2.48
2022-12-22T08:22:52.711Z,2.38
2022-12-22T08:25:19.507Z,2.28
2022-12-22T08:27:51.135Z,2.25
2022-12-22T08:30:18.002Z,2.36
2022-12-22T08:32:49.799Z,2.38
2022-12-22T08:35:16.716Z,2.39
2022-12-22T08:37:47.146Z,2.47
2022-12-22T08:40:25.271Z,2.49
2022-12-22T08:42:59.078Z,2.55
2022-12-22T08:45:26.287Z,2.64
2022-12-22T08:47:53.021Z,2.73
2022-12-22T08:50:19.902Z,2.69
2022-12-22T08:52:46.658Z,2.70
2022-12-22T08:55:14.034Z,2.75
2022-12-22T08:57:41.068Z,2.72
2022-12-22T09:00:09.000Z,2.67
2022-12-22T09:02:38.690Z,2.62
2022-12-22T09:05:05.860Z,2.65
2022-12-22T09:07:32.630Z,2.63
2022-12-22T09:09:59.312Z,2.61
2022-12-22T09:12:27.214Z,2.64
2022-12-22T09:14:53.959Z,2.65
2022-12-22T09:17:20.771Z,2.61
2022-12-22T09:19:47.505Z,2.64
2022-12-22T09:22:14.352Z,2.67
2022-12-22T09:24:41.179Z,2.78
2022-12-22T09:27:09.303Z,2.89
2022-12-22T09:29:37.282Z,2.95
2022-12-22T09:32:04.821Z,2.91
2022-12-22T09:34:31.698Z,2.92
2022-12-22T09:36:58.470Z,2.93
2022-12-22T09:39:29.155Z,2.98
2022-12-22T09:41:58.749Z,2.90
2022-12-22T09:44:45.141Z,2.85
2022-12-22T09:47:28.334Z,2.91
2022-12-22T09:49:57.869Z,3.00
2022-12-22T09:52:36.854Z,2.99
2022-12-22T09:55:11.762Z,3.06
2022-12-22T09:57:39.656Z,3.18
2022-12-22T10:00:17.065Z,3.16
2022-12-22T10:02:58.973Z,3.15
2022-12-22T10:05:42.903Z,3.17
2022-12-22T10:08:21.043Z,3.16
2022-12-22T10:10:52.920Z,3.19
2022-12-22T10:13:20.203Z,3.14
2022-12-22T10:15:47.280Z,3.00
2022-12-22T10:18:19.713Z,2.98
2022-12-22T10:21:06.318Z,3.03
2022-12-22T10:23:35.637Z,3.13
2022-12-22T10:26:28.708Z,3.15
2022-12-22T10:29:06.048Z,3.20
2022-12-22T10:31:35.468Z,3.27
2022-12-22T10:34:16.689Z,3.28
2022-12-22T10:36:52.147Z,3.23
2022-12-22T10:39:28.979Z,3.35
2022-12-22T10:42:00.544Z,3.40
2022-12-22T10:44:30.783Z,3.36
2022-12-22T10:46:59.857Z,3.37
2022-12-22T10:49:28.187Z,3.44
2022-12-22T10:52:15.236Z,3.49
2022-12-22T10:54:44.221Z,3.57
2022-12-22T10:57:16.871Z,3.54
2022-12-22T10:59:53.719Z,3.47
2022-12-22T11:02:28.345Z,3.49
2022-12-22T11:05:09.626Z,3.59
2022-12-22T11:07:39.500Z,3.63
2022-12-22T11:10:21.662Z,3.56
2022-12-22T11:13:10.003Z,3.51
2022-12-22T11:15:36.739Z,3.51
2022-12-22T11:18:36.975Z,3.42
2022-12-22T11:21:03.669Z,3.39
2022-12-22T11:23:36.401Z,3.41
2022-12-22T11:26:20.023Z,3.36
2022-12-22T11:28:56.878Z,3.05
2022-12-22T11:31:41.462Z,3.28
2022-12-22T11:34:37.357Z,3.18
2022-12-22T11:37:31.871Z,3.17
2022-12-22T11:40:40.403Z,3.24
2022-12-22T11:43:15.997Z,3.36
2022-12-22T11:46:02.269Z,3.32
2022-12-22T11:48:45.027Z,3.41
2022-12-22T11:51:27.505Z,3.42
2022-12-22T11:53:55.248Z,3.21
2022-12-22T11:56:36.736Z,3.36
2022-12-22T11:59:18.718Z,3.41
2022-12-22T12:01:51.279Z,3.40
2022-12-22T12:04:24.109Z,3.36
2022-12-22T12:07:15.064Z,3.40
2022-12-22T12:09:54.415Z,3.49
2022-12-22T12:12:39.572Z,3.55
2022-12-22T12:15:24.432Z,3.54
2022-12-22T12:17:51.199Z,3.62
2022-12-22T12:20:31.710Z,3.60
2022-12-22T12:23:24.194Z,3.46
2022-12-22T12:26:11.889Z,3.42
2022-12-22T12:28:38.615Z,3.52
2022-12-22T12:31:07.397Z,3.50
2022-12-22T12:33:54.248Z,3.27
2022-12-22T12:36:45.410Z,3.14
2022-12-22T12:39:28.791Z,3.21
2022-12-22T12:42:17.160Z,3.10
2022-12-22T12:44:44.573Z,3.22
2022-12-22T12:47:27.364Z,3.21
2022-12-22T12:50:10.600Z,3.20
2022-12-22T12:52:57.589Z,3.09
2022-12-22T12:55:32.752Z,3.10
2022-12-22T12:58:03.415Z,3.04
2022-12-22T13:00:33.252Z,2.93
2022-12-22T13:03:02.380Z,2.95
2022-12-22T13:05:48.687Z,2.97
2022-12-22T13:08:18.223Z,3.04
2022-12-22T13:10:54.194Z,3.06
2022-12-22T13:13:23.825Z,2.96
2022-12-22T13:16:02.740Z,2.99
2022-12-22T13:18:51.268Z,3.16
2022-12-22T13:21:53.532Z,3.08
2022-12-22T13:24:29.548Z,3.15
2022-12-22T13:27:01.185Z,3.15
2022-12-22T13:29:29.903Z,3.13
2022-12-22T13:32:05.103Z,3.14
2022-12-22T13:37:48.234Z,3.20
2022-12-22T13:40:40.036Z,3.27
2022-12-22T13:43:13.672Z,3.20
2022-12-22T13:45:46.656Z,3.20
2022-12-22T13:48:25.574Z,3.13
2022-12-22T13:50:55.636Z,3.13
2022-12-22T13:56:46.753Z,3.05
2022-12-22T13:59:40.736Z,3.07
2022-12-22T14:02:11.376Z,3.14
2022-12-22T14:04:41.538Z,3.19
2022-12-22T14:07:19.359Z,3.26
2022-12-22T14:09:48.015Z,3.27
2022-12-22T14:12:21.174Z,3.25
2022-12-22T14:14:51.000Z,3.28
2022-12-22T14:17:29.168Z,3.25
2022-12-22T14:20:00.875Z,3.25
2022-12-22T14:22:45.495Z,3.21
2022-12-22T14:25:25.623Z,3.26
2022-12-22T14:27:54.776Z,3.38
2022-12-22T14:30:34.821Z,3.44
2022-12-22T14:33:27.798Z,3.41
2022-12-22T14:36:17.897Z,3.43
2022-12-22T14:39:05.424Z,3.54
2022-12-22T14:41:51.762Z,3.54
2022-12-22T14:44:42.405Z,3.54
2022-12-22T14:47:18.031Z,3.62
2022-12-22T14:49:44.811Z,3.65
2022-12-22T14:52:33.276Z,3.52
2022-12-22T14:55:00.639Z,3.58
2022-12-22T14:57:39.529Z,3.65
2022-12-22T15:00:27.526Z,3.73
2022-12-22T15:02:57.593Z,3.73
2022-12-22T15:05:37.678Z,3.65
2022-12-22T15:08:08.322Z,3.65
2022-12-22T15:10:44.146Z,3.58
2022-12-22T15:13:24.468Z,3.51
2022-12-22T15:15:52.280Z,3.62
2022-12-22T15:18:26.677Z,3.61
2022-12-22T15:20:54.516Z,3.64
2022-12-22T15:23:21.359Z,3.55
2022-12-22T15:25:48.240Z,3.54
2022-12-22T15:28:15.402Z,3.46
2022-12-22T15:30:42.808Z,3.43
2022-12-22T15:33:18.756Z,3.26
2022-12-22T15:35:46.040Z,3.34
2022-12-22T15:38:18.000Z,3.23
2022-12-22T15:40:45.807Z,3.25
2022-12-22T15:43:44.774Z,3.26
2022-12-22T15:46:02.571Z,3.18
2022-12-22T15:48:33.044Z,3.20
2022-12-22T15:51:00.684Z,3.28
2022-12-22T15:53:27.606Z,3.35
2022-12-22T15:55:58.594Z,3.24
2022-12-22T15:58:30.905Z,3.18
2022-12-22T16:00:57.740Z,3.14
2022-12-22T16:03:24.675Z,3.18
2022-12-22T16:05:52.886Z,3.27
2022-12-22T16:08:30.198Z,3.27
2022-12-22T16:10:57.194Z,3.40
2022-12-22T16:13:27.278Z,3.52
2022-12-22T16:15:56.224Z,3.62
2022-12-22T16:18:23.149Z,3.56
2022-12-22T16:20:50.784Z,3.41
2022-12-22T16:23:22.007Z,3.32
2022-12-22T16:25:49.348Z,3.27
2022-12-22T16:28:22.030Z,3.28
2022-12-22T16:30:49.552Z,3.28
2022-12-22T16:33:16.665Z,3.25
2022-12-22T16:35:43.621Z,3.24
2022-12-22T16:38:16.371Z,3.28
2022-12-22T16:40:53.011Z,3.27
2022-12-22T16:46:23.587Z,3.33
2022-12-22T16:48:53.273Z,3.31
2022-12-22T16:51:29.824Z,3.37
2022-12-22T16:53:56.856Z,3.50
2022-12-22T16:56:26.939Z,3.61
2022-12-22T16:58:53.851Z,3.69
2022-12-22T17:01:29.559Z,3.70
2022-12-22T17:04:00.830Z,3.60
2022-12-22T17:06:27.756Z,3.63
2022-12-22T17:08:54.675Z,3.67
2022-12-22T17:11:25.172Z,3.65
2022-12-22T17:13:57.705Z,3.56
2022-12-22T17:16:24.544Z,3.51
2022-12-22T17:18:51.462Z,3.53
2022-12-22T17:21:20.450Z,3.42
2022-12-22T17:23:55.228Z,3.33
2022-12-22T17:26:24.960Z,3.44
2022-12-22T17:28:52.240Z,3.52
2022-12-22T17:31:23.164Z,3.57
2022-12-22T17:33:50.589Z,3.63
2022-12-22T17:36:34.357Z,3.60
2022-12-22T17:39:02.134Z,3.74
2022-12-22T17:41:28.982Z,3.81
2022-12-22T17:43:55.847Z,3.83
2022-12-22T17:46:22.865Z,3.86
2022-12-22T17:48:50.242Z,3.93
2022-12-22T17:51:21.631Z,4.01
2022-12-22T17:53:48.679Z,4.07
2022-12-22T17:56:18.742Z,4.08
2022-12-22T17:58:46.029Z,3.93
2022-12-22T18:01:25.336Z,3.77
2022-12-22T18:03:52.374Z,3.77
2022-12-22T18:06:21.847Z,3.65
2022-12-22T18:08:49.313Z,3.61
2022-12-22T18:11:16.660Z,3.55
2022-12-22T18:13:43.637Z,3.52
2022-12-22T18:16:15.929Z,3.57
2022-12-22T18:18:43.846Z,3.60
2022-12-22T18:21:22.729Z,3.58
2022-12-22T18:23:51.212Z,3.65
2022-12-22T18:26:22.390Z,3.57
2022-12-22T18:28:49.691Z,3.64
2022-12-22T18:31:16.598Z,3.67
2022-12-22T18:33:43.635Z,3.71
2022-12-22T18:36:33.875Z,3.52
2022-12-22T18:39:02.500Z,3.62
2022-12-22T18:41:34.758Z,3.56
2022-12-22T18:44:01.601Z,3.53
2022-12-22T18:46:28.515Z,3.52
2022-12-22T18:48:59.036Z,3.45
2022-12-22T18:51:30.385Z,3.47
2022-12-22T18:53:57.580Z,3.44
2022-12-22T18:56:24.328Z,3.35
2022-12-22T18:58:51.077Z,3.37
2022-12-22T19:01:24.600Z,3.51
2022-12-22T19:03:53.502Z,3.50
2022-12-22T19:06:21.874Z,3.55
2022-12-22T19:08:49.510Z,3.45
2022-12-22T19:11:18.726Z,3.49
2022-12-22T19:13:47.885Z,3.47
2022-12-22T19:16:17.944Z,3.52
2022-12-22T19:18:44.971Z,3.48
2022-12-22T19:21:17.268Z,3.38
2022-12-22T19:23:44.981Z,3.42
2022-12-22T19:26:24.343Z,3.46
2022-12-22T19:29:00.523Z,3.53
2022-12-22T19:31:34.445Z,3.58
2022-12-22T19:34:06.387Z,3.63
2022-12-22T19:36:33.509Z,3.70
2022-12-22T19:39:04.378Z,3.71
2022-12-22T19:41:42.064Z,3.69
2022-12-22T19:44:21.541Z,3.68
2022-12-22T19:46:48.606Z,3.78
2022-12-22T19:49:21.228Z,3.81
2022-12-22T19:51:48.140Z,3.86
2022-12-22T19:54:15.094Z,3.90
2022-12-22T19:56:44.029Z,3.86
2022-12-22T19:59:39.149Z,3.82
2022-12-22T20:02:21.847Z,3.78
2022-12-22T20:04:50.364Z,3.91
2022-12-22T20:07:21.897Z,3.96
2022-12-22T20:10:10.101Z,3.86
2022-12-22T20:12:40.096Z,3.77
2022-12-22T20:15:17.106Z,3.72
2022-12-22T20:17:44.233Z,3.74
2022-12-22T20:20:18.008Z,3.66
2022-12-22T20:22:53.069Z,3.61
2022-12-22T20:25:22.697Z,3.67
2022-12-22T20:27:50.782Z,3.59
2022-12-22T20:30:17.522Z,3.60
2022-12-22T20:32:44.416Z,3.53
2022-12-22T20:35:32.986Z,3.44
2022-12-22T20:37:59.810Z,3.56
2022-12-22T20:40:29.394Z,3.61
2022-12-22T20:42:57.732Z,3.68
2022-12-22T20:45:29.449Z,3.69
2022-12-22T20:47:57.735Z,3.77
2022-12-22T20:50:30.170Z,3.70
2022-12-22T20:52:58.247Z,3.68
2022-12-22T20:55:28.398Z,3.66
2022-12-22T20:57:55.709Z,3.72
2022-12-22T21:00:28.512Z,3.84
2022-12-22T21:03:46.507Z,3.82
2022-12-22T21:06:25.657Z,3.95
2022-12-22T21:09:01.203Z,3.96
2022-12-22T21:11:40.719Z,3.97
2022-12-22T21:14:32.940Z,3.93
2022-12-22T21:16:59.974Z,4.08
2022-12-22T21:19:26.945Z,4.13
2022-12-22T21:22:11.528Z,4.08
2022-12-22T21:24:38.557Z,4.19
2022-12-22T21:27:20.484Z,4.22
2022-12-22T21:29:47.741Z,4.28
2022-12-22T21:32:15.529Z,4.32
2022-12-22T21:34:42.523Z,4.32
2022-12-22T21:37:17.541Z,4.24
2022-12-22T21:39:44.940Z,4.24
2022-12-22T21:42:17.143Z,4.27
2022-12-22T21:44:45.281Z,4.33
2022-12-22T21:47:36.137Z,4.00
2022-12-22T21:50:05.038Z,4.30
2022-12-22T21:52:31.866Z,4.32
2022-12-22T21:54:58.552Z,4.30
2022-12-22T21:57:25.966Z,4.31
2022-12-22T21:59:52.700Z,4.22
2022-12-22T22:02:19.633Z,4.24
2022-12-22T22:04:53.681Z,4.30
2022-12-22T22:07:21.523Z,4.23
2022-12-22T22:09:48.241Z,4.22
2022-12-22T22:12:40.319Z,4.22
2022-12-22T22:15:08.028Z,4.21
2022-12-22T22:17:34.810Z,4.22
2022-12-22T22:20:04.400Z,4.27
2022-12-22T22:22:34.982Z,4.32
2022-12-22T22:25:01.794Z,4.37
2022-12-22T22:27:29.480Z,4.42
2022-12-22T22:29:56.323Z,4.42
2022-12-22T22:32:23.257Z,4.33
2022-12-22T22:34:51.154Z,4.33
2022-12-22T22:37:18.151Z,4.35
2022-12-22T22:39:45.880Z,4.42
2022-12-22T22:42:12.595Z,4.48
2022-12-22T22:44:39.277Z,4.57
2022-12-22T22:47:06.082Z,4.63
2022-12-22T22:49:33.017Z,4.68
2022-12-22T22:51:59.734Z,4.72
2022-12-22T22:54:27.626Z,4.78
2022-12-22T22:56:54.539Z,4.80
2022-12-22T22:59:21.408Z,4.84
2022-12-22T23:01:48.289Z,4.83
2022-12-22T23:04:15.166Z,4.83
2022-12-22T23:06:42.075Z,4.93
2022-12-22T23:09:09.584Z,4.98
2022-12-22T23:11:36.479Z,5.01
2022-12-22T23:14:03.288Z,5.05
2022-12-22T23:16:35.714Z,5.08
2022-12-22T23:19:05.493Z,5.08
2022-12-22T23:21:33.046Z,5.08
2022-12-22T23:23:59.841Z,5.09
2022-12-22T23:26:27.209Z,5.09
2022-12-22T23:28:59.137Z,5.14
2022-12-22T23:31:28.171Z,5.18
2022-12-22T23:33:57.296Z,5.19
2022-12-22T23:36:24.359Z,5.24
2022-12-22T23:38:51.843Z,5.25
2022-12-22T23:41:19.014Z,5.28
2022-12-22T23:43:46.000Z,5.26
2022-12-22T23:46:15.747Z,5.25
2022-12-22T23:48:43.502Z,5.26
2022-12-22T23:51:11.833Z,5.29
2022-12-22T23:53:39.026Z,5.32
2022-12-22T23:56:06.260Z,5.29
2022-12-22T23:58:32.997Z,5.36
